Time;durP1;ratioP1;P1;durP2;ratioP2;P2;SDS_P1;SDS_P2;PMS_P1;PMS_P2;Temp;Humidity;BMP_temperature;BMP_pressure;BME280_temperature;BME280_humidity;BME280_pressure;Samples;Min_cycle;Max_cycle;Signal;HPM_P1;HPM_P2
2020/12/17 00:00:39;;;;;;;;;;;;;;;-0.64;100.00;101979.95;1867379;77;20135;-39
2020/12/17 00:03:07;;;;;;;;;;;;;;;-0.64;100.00;101979.06;1867553;77;20229;-38
2020/12/17 00:05:34;;;;;;;;;;;;;;;-0.67;100.00;101977.23;1867375;77;20424;-38
2020/12/17 00:08:01;;;;;;;;;;;;;;;-0.66;100.00;101975.55;1867267;77;20134;-39
2020/12/17 00:10:29;;;;;;;;;;;;;;;-0.68;100.00;101977.16;1867271;77;20277;-37
2020/12/17 00:12:57;;;;;;;;;;;;;;;-0.68;100.00;101978.45;1867433;77;20126;-40
2020/12/17 00:15:25;;;;;;;;;;;;;;;-0.69;100.00;101976.27;1867243;77;20122;-38
2020/12/17 00:17:52;;;;;;;;;;;;;;;-0.68;100.00;101983.19;1867634;77;20229;-38
2020/12/17 00:20:22;;;;;;;;;;;;;;;-0.66;100.00;101988.42;1867284;77;20423;-39
2020/12/17 00:22:50;;;;;;;;;;;;;;;-0.68;100.00;101980.62;1867502;77;20396;-40
2020/12/17 00:25:18;;;;;;;;;;;;;;;-0.70;100.00;101983.52;1873747;75;20385;-38
2020/12/17 00:27:47;;;;;;;;;;;;;;;-0.70;100.00;101982.22;1893065;75;20136;-38
2020/12/17 00:30:16;;;;;;;;;;;;;;;-0.71;100.00;101986.00;1884113;75;20156;-40
2020/12/17 00:32:44;;;;;;;;;;;;;;;-0.73;100.00;101979.91;1867301;77;20163;-39
2020/12/17 00:35:12;;;;;;;;;;;;;;;-0.71;100.00;101978.28;1867379;77;20132;-39
2020/12/17 00:37:40;;;;;;;;;;;;;;;-0.71;100.00;101975.30;1867594;77;20180;-38
2020/12/17 00:40:10;;;;;;;;;;;;;;;-0.71;100.00;101961.14;1867444;76;20223;-39
2020/12/17 00:42:39;;;;;;;;;;;;;;;-0.69;100.00;101973.70;1867267;77;20184;-39
2020/12/17 00:45:07;;;;;;;;;;;;;;;-0.70;100.00;101966.77;1867363;77;20310;-40
2020/12/17 00:47:34;;;;;;;;;;;;;;;-0.69;100.00;101967.26;1867504;77;20160;-40
2020/12/17 00:50:05;;;;;;;;;;;;;;;-0.68;100.00;101968.14;1867234;76;20171;-40
2020/12/17 00:52:36;;;;;;;;;;;;;;;-0.68;100.00;101970.31;1867500;77;20371;-38
2020/12/17 00:55:04;;;;;;;;;;;;;;;-0.67;100.00;101977.64;1866717;76;20227;-39
2020/12/17 00:57:32;;;;;;;;;;;;;;;-0.68;100.00;101970.31;1867532;77;20477;-40
2020/12/17 01:00:00;;;;;;;;;;;;;;;-0.68;100.00;101975.47;1867306;77;20247;-40
2020/12/17 01:02:28;;;;;;;;;;;;;;;-0.67;100.00;101977.23;1867444;76;20140;-40
2020/12/17 01:04:57;;;;;;;;;;;;;;;-0.66;100.00;101978.13;1867357;77;20139;-39
2020/12/17 01:07:25;;;;;;;;;;;;;;;-0.69;100.00;101982.71;1867279;76;20259;-37
2020/12/17 01:09:52;;;;;;;;;;;;;;;-0.70;100.00;101982.22;1867259;77;20263;-37
2020/12/17 01:12:21;;;;;;;;;;;;;;;-0.69;100.00;101981.42;1867403;76;20398;-39
2020/12/17 01:14:48;;;;;;;;;;;;;;;-0.67;100.00;101987.94;1867486;76;20133;-38
2020/12/17 01:17:16;;;;;;;;;;;;;;;-0.63;100.00;101984.30;1867194;76;20121;-39
2020/12/17 01:19:44;;;;;;;;;;;;;;;-0.62;100.00;101986.06;1867136;77;20183;-39
2020/12/17 01:22:12;;;;;;;;;;;;;;;-0.60;100.00;101978.42;1867156;77;20134;-39
2020/12/17 01:24:39;;;;;;;;;;;;;;;-0.60;100.00;101974.16;1867212;77;20237;-38
2020/12/17 01:27:07;;;;;;;;;;;;;;;-0.59;100.00;101974.61;1867293;77;20377;-40
2020/12/17 01:29:35;;;;;;;;;;;;;;;-0.60;100.00;101981.00;1867291;77;20296;-40
2020/12/17 01:32:03;;;;;;;;;;;;;;;-0.61;100.00;101979.23;1867471;77;20169;-38
2020/12/17 01:34:30;;;;;;;;;;;;;;;-0.61;100.00;101983.98;1867492;77;20261;-40
2020/12/17 01:36:58;;;;;;;;;;;;;;;-0.62;100.00;101983.89;1867134;77;20156;-39
2020/12/17 01:39:26;;;;;;;;;;;;;;;-0.64;100.00;101985.09;1867532;77;20162;-39
2020/12/17 01:41:53;;;;;;;;;;;;;;;-0.61;100.00;101983.98;1867245;77;20149;-39
2020/12/17 01:44:22;;;;;;;;;;;;;;;-0.60;100.00;101981.88;1867468;77;20143;-38
2020/12/17 01:46:52;;;;;;;;;;;;;;;-0.58;100.00;101987.97;1867042;77;20271;-39
2020/12/17 01:49:25;;;;;;;;;;;;;;;-0.60;100.00;101986.15;1867366;76;20172;-38
2020/12/17 01:51:53;;;;;;;;;;;;;;;-0.59;100.00;101984.05;1867078;77;20188;-40
2020/12/17 01:54:21;;;;;;;;;;;;;;;-0.58;100.00;101985.80;1867202;77;20204;-40
2020/12/17 01:56:56;;;;;;;;;;;;;;;-0.60;100.00;101983.17;1867256;77;20145;-40
2020/12/17 01:59:24;;;;;;;;;;;;;;;-0.60;100.00;101990.90;1866800;76;20136;-39
2020/12/17 02:01:53;;;;;;;;;;;;;;;-0.61;100.00;101982.69;1867134;77;20129;-38
2020/12/17 02:04:22;;;;;;;;;;;;;;;-0.64;100.00;101986.38;1867323;76;20179;-38
2020/12/17 02:06:50;;;;;;;;;;;;;;;-0.67;100.00;101987.54;1867391;76;20176;-40
2020/12/17 02:09:18;;;;;;;;;;;;;;;-0.68;100.00;101981.02;1867410;76;20152;-39
2020/12/17 02:11:56;;;;;;;;;;;;;;;-0.69;100.00;101977.56;1867226;77;20260;-38
2020/12/17 02:14:24;;;;;;;;;;;;;;;-0.67;100.00;101966.94;1867193;77;20191;-38
2020/12/17 02:16:52;;;;;;;;;;;;;;;-0.67;100.00;101960.50;1867293;76;20224;-39
2020/12/17 02:19:21;;;;;;;;;;;;;;;-0.64;100.00;101965.78;1867387;76;20415;-39
2020/12/17 02:21:49;;;;;;;;;;;;;;;-0.62;100.00;101960.31;1867393;77;20263;-39
2020/12/17 02:26:49;;;;;;;;;;;;;;;-0.56;100.00;101964.47;1933682;74;20396;-38
2020/12/17 02:29:18;;;;;;;;;;;;;;;-0.61;100.00;101970.21;1891989;75;20125;-39
2020/12/17 02:31:46;;;;;;;;;;;;;;;-0.63;100.00;101966.67;1890902;76;20176;-39
2020/12/17 02:34:14;;;;;;;;;;;;;;;-0.62;100.00;101971.02;1891136;76;20140;-38
2020/12/17 02:36:42;;;;;;;;;;;;;;;-0.62;100.00;101968.44;1890827;76;20121;-38
2020/12/17 02:39:09;;;;;;;;;;;;;;;-0.61;100.00;101962.48;1891026;76;20120;-38
2020/12/17 02:41:37;;;;;;;;;;;;;;;-0.61;100.00;101964.66;1890749;76;20136;-38
2020/12/17 02:44:05;;;;;;;;;;;;;;;-0.62;100.00;101971.91;1890907;76;20216;-39
2020/12/17 02:46:33;;;;;;;;;;;;;;;-0.67;100.00;101972.09;1890822;76;20148;-39
2020/12/17 02:49:01;;;;;;;;;;;;;;;-0.71;100.00;101971.84;1891101;76;20160;-38
2020/12/17 02:51:28;;;;;;;;;;;;;;;-0.75;100.00;101978.55;1890802;76;20120;-39
2020/12/17 02:53:56;;;;;;;;;;;;;;;-0.75;100.00;101978.55;1890918;76;20422;-39
2020/12/17 02:56:24;;;;;;;;;;;;;;;-0.75;100.00;101969.94;1890923;76;20469;-38
2020/12/17 02:58:52;;;;;;;;;;;;;;;-0.75;100.00;101968.25;1891213;76;20160;-38
2020/12/17 03:01:19;;;;;;;;;;;;;;;-0.74;100.00;101974.28;1858397;76;20146;-39
2020/12/17 03:03:47;;;;;;;;;;;;;;;-0.75;100.00;101983.70;1856439;77;20143;-46
2020/12/17 03:06:16;;;;;;;;;;;;;;;-0.76;100.00;101977.17;1856553;77;20225;-40
2020/12/17 03:08:43;;;;;;;;;;;;;;;-0.74;100.00;101971.70;1856195;77;20163;-38
2020/12/17 03:11:11;;;;;;;;;;;;;;;-0.71;100.00;101979.16;1856222;77;20162;-39
2020/12/17 03:13:38;;;;;;;;;;;;;;;-0.69;100.00;101986.57;1856234;77;20186;-39
2020/12/17 03:16:06;;;;;;;;;;;;;;;-0.67;100.00;101975.06;1856268;77;20178;-39
2020/12/17 03:18:34;;;;;;;;;;;;;;;-0.67;100.00;101969.52;1856483;77;20166;-38
2020/12/17 03:21:02;;;;;;;;;;;;;;;-0.64;100.00;101968.77;1856215;77;20131;-40
2020/12/17 03:23:29;;;;;;;;;;;;;;;-0.61;100.00;101960.80;1856617;77;20365;-38
2020/12/17 03:25:58;;;;;;;;;;;;;;;-0.59;100.00;101963.45;1856189;77;20408;-37
2020/12/17 03:28:25;;;;;;;;;;;;;;;-0.57;100.00;101963.10;1856454;77;20448;-40
2020/12/17 03:30:53;;;;;;;;;;;;;;;-0.55;100.00;101959.80;1856155;77;20232;-39
2020/12/17 03:33:21;;;;;;;;;;;;;;;-0.49;100.00;101969.11;1877865;76;20262;-39
2020/12/17 03:35:48;;;;;;;;;;;;;;;-0.44;100.00;101954.75;1856058;77;20139;-39
2020/12/17 03:38:18;;;;;;;;;;;;;;;-0.39;100.00;101955.39;1855954;76;20206;-37
2020/12/17 03:40:45;;;;;;;;;;;;;;;-0.39;100.00;101954.96;1855672;77;20428;-39
2020/12/17 03:43:13;;;;;;;;;;;;;;;-0.35;100.00;101955.60;1855917;77;20230;-39
2020/12/17 03:45:41;;;;;;;;;;;;;;;-0.34;100.00;101948.77;1855787;77;20291;-39
2020/12/17 03:48:08;;;;;;;;;;;;;;;-0.34;100.00;101944.49;1855604;77;20143;-40
2020/12/17 03:50:36;;;;;;;;;;;;;;;-0.35;100.00;101946.59;1855851;77;20151;-39
2020/12/17 03:53:03;;;;;;;;;;;;;;;-0.32;100.00;101950.98;1855481;77;20484;-38
2020/12/17 03:55:32;;;;;;;;;;;;;;;-0.33;100.00;101950.12;1855641;77;20158;-39
2020/12/17 03:57:59;;;;;;;;;;;;;;;-0.32;100.00;101941.97;1855801;77;20456;-39
2020/12/17 04:00:28;;;;;;;;;;;;;;;-0.32;100.00;101939.39;1855705;77;20170;-40
2020/12/17 04:02:55;;;;;;;;;;;;;;;-0.33;100.00;101944.09;1855529;77;20166;-39
2020/12/17 04:05:23;;;;;;;;;;;;;;;-0.39;100.00;101943.37;1855370;77;20127;-40
2020/12/17 04:07:50;;;;;;;;;;;;;;;-0.44;100.00;101940.59;1855511;77;20270;-40
2020/12/17 04:10:18;;;;;;;;;;;;;;;-0.45;100.00;101946.94;1855757;77;20135;-39
2020/12/17 04:12:46;;;;;;;;;;;;;;;-0.49;100.00;101947.63;1855941;77;20214;-40
2020/12/17 04:15:14;;;;;;;;;;;;;;;-0.51;100.00;101951.80;1855401;76;20304;-39
2020/12/17 04:17:42;;;;;;;;;;;;;;;-0.54;100.00;101961.98;1855892;77;20269;-39
2020/12/17 04:20:09;;;;;;;;;;;;;;;-0.56;100.00;101958.03;1855490;77;20202;-37
2020/12/17 04:22:37;;;;;;;;;;;;;;;-0.56;100.00;101959.72;1859840;76;20249;-39
2020/12/17 04:25:05;;;;;;;;;;;;;;;-0.57;100.00;101957.95;1881016;76;20281;-39
2020/12/17 04:27:33;;;;;;;;;;;;;;;-0.58;100.00;101960.92;1855748;77;20134;-40
2020/12/17 04:30:01;;;;;;;;;;;;;;;-0.58;100.00;101961.33;1855543;77;20143;-39
2020/12/17 04:32:28;;;;;;;;;;;;;;;-0.56;100.00;101960.61;1810071;79;20161;-39
2020/12/17 04:34:56;;;;;;;;;;;;;;;-0.57;100.00;101961.41;1809688;79;20142;-39
2020/12/17 04:37:25;;;;;;;;;;;;;;;-0.57;100.00;101956.66;1809756;79;20280;-40
2020/12/17 04:39:52;;;;;;;;;;;;;;;-0.57;100.00;101956.66;1809581;79;20174;-39
2020/12/17 04:42:20;;;;;;;;;;;;;;;-0.57;100.00;101966.56;1809748;79;20166;-40
2020/12/17 04:44:47;;;;;;;;;;;;;;;-0.56;100.00;101967.45;1830674;78;20373;-40
2020/12/17 04:47:20;;;;;;;;;;;;;;;-0.56;100.00;101967.05;1809122;79;20215;-40
2020/12/17 04:49:50;;;;;;;;;;;;;;;-0.56;100.00;101970.02;1783128;80;20390;-40
2020/12/17 04:52:18;;;;;;;;;;;;;;;-0.54;100.00;101970.98;1771538;80;20215;-40
2020/12/17 04:54:46;;;;;;;;;;;;;;;-0.56;100.00;101972.20;1787895;80;20139;-39
2020/12/17 04:57:15;;;;;;;;;;;;;;;-0.57;100.00;101975.98;1807260;79;20209;-39
2020/12/17 04:59:49;;;;;;;;;;;;;;;-0.59;100.00;101977.19;1805080;78;20174;-39
2020/12/17 05:02:20;;;;;;;;;;;;;;;-0.57;100.00;101974.69;1805621;78;20134;-39
2020/12/17 05:04:50;;;;;;;;;;;;;;;-0.59;100.00;101982.34;1809047;78;20230;-41
2020/12/17 05:07:23;;;;;;;;;;;;;;;-0.55;100.00;101990.70;1822606;78;20140;-40
2020/12/17 05:09:51;;;;;;;;;;;;;;;-0.53;100.00;101988.22;1812726;79;20457;-39
2020/12/17 05:12:19;;;;;;;;;;;;;;;-0.54;100.00;101987.73;1809396;78;20122;-39
2020/12/17 05:14:48;;;;;;;;;;;;;;;-0.56;100.00;101988.05;1808628;78;20215;-41
2020/12/17 05:17:16;;;;;;;;;;;;;;;-0.57;100.00;101992.31;1804194;79;20138;-39
2020/12/17 05:19:44;;;;;;;;;;;;;;;-0.58;100.00;101993.12;1804443;80;20194;-38
2020/12/17 05:22:17;;;;;;;;;;;;;;;-0.61;100.00;102000.72;1803793;80;20169;-39
2020/12/17 05:24:47;;;;;;;;;;;;;;;-0.62;100.00;102004.09;1805703;78;20310;-36
2020/12/17 05:27:15;;;;;;;;;;;;;;;-0.61;100.00;102008.44;1807693;78;20190;-39
2020/12/17 05:29:43;;;;;;;;;;;;;;;-0.58;100.00;102014.13;1810441;78;20295;-38
2020/12/17 05:32:11;;;;;;;;;;;;;;;-0.54;100.00;102008.34;1809558;78;20157;-38
2020/12/17 05:34:39;;;;;;;;;;;;;;;-0.55;100.00;102009.14;1793595;78;20153;-39
2020/12/17 05:37:07;;;;;;;;;;;;;;;-0.56;100.00;102009.94;1814941;78;20164;-38
2020/12/17 05:39:43;;;;;;;;;;;;;;;-0.56;100.00;102013.81;1814449;78;20181;-44
2020/12/17 05:42:12;;;;;;;;;;;;;;;-0.56;100.00;102015.09;1810035;78;20188;-40
2020/12/17 05:44:40;;;;;;;;;;;;;;;-0.56;100.00;102014.69;1855932;76;20200;-40
2020/12/17 05:47:12;;;;;;;;;;;;;;;-0.53;100.00;102010.11;1865934;76;20294;-40
2020/12/17 05:49:40;;;;;;;;;;;;;;;-0.54;100.00;102012.20;1850008;76;20210;-39
2020/12/17 05:52:20;;;;;;;;;;;;;;;-0.52;100.00;102014.02;1857836;76;20212;-39
2020/12/17 05:54:58;;;;;;;;;;;;;;;-0.52;100.00;102011.45;1858260;76;20193;-39
2020/12/17 05:57:26;;;;;;;;;;;;;;;-0.55;100.00;102019.05;1859307;76;20186;-40
2020/12/17 06:00:05;;;;;;;;;;;;;;;-0.52;100.00;102023.44;1860239;76;20193;-40
2020/12/17 06:02:36;;;;;;;;;;;;;;;-0.52;100.00;102019.17;1856077;76;20186;-39
2020/12/17 06:05:09;;;;;;;;;;;;;;;-0.49;100.00;102023.20;1858624;76;20184;-41
2020/12/17 06:07:49;;;;;;;;;;;;;;;-0.43;100.00;102030.34;1858335;76;20172;-39
2020/12/17 06:10:28;;;;;;;;;;;;;;;-0.42;100.00;102035.98;1854917;76;20194;-39
2020/12/17 06:12:58;;;;;;;;;;;;;;;-0.44;100.00;102032.03;1843252;75;20192;-43
2020/12/17 06:15:27;;;;;;;;;;;;;;;-0.46;100.00;102023.34;1861789;76;20180;-40
2020/12/17 06:18:01;;;;;;;;;;;;;;;-0.44;100.00;102024.70;1854205;76;20367;-41
2020/12/17 06:20:33;;;;;;;;;;;;;;;-0.39;100.00;102026.24;1857095;76;20232;-44
2020/12/17 06:26:51;;;;;;;;;;;;;;;-0.27;100.00;102036.73;1897111;74;20314;-41
2020/12/17 06:29:21;;;;;;;;;;;;;;;-0.29;100.00;102036.17;1861633;75;20222;-41
2020/12/17 06:31:57;;;;;;;;;;;;;;;-0.30;100.00;102035.69;1803050;77;20490;-41
2020/12/17 06:34:29;;;;;;;;;;;;;;;-0.30;100.00;102030.53;1731273;78;20172;-40
2020/12/17 06:36:58;;;;;;;;;;;;;;;-0.30;100.00;102035.28;1811652;78;20473;-40
2020/12/17 06:39:26;;;;;;;;;;;;;;;-0.32;100.00;102033.42;1810795;78;20328;-41
2020/12/17 06:41:53;;;;;;;;;;;;;;;-0.32;100.00;102035.60;1813927;78;20200;-41
2020/12/17 06:44:32;;;;;;;;;;;;;;;-0.31;100.00;102029.64;1807581;78;20469;-42
2020/12/17 06:47:01;;;;;;;;;;;;;;;-0.27;100.00;102035.84;1806794;78;20173;-40
2020/12/17 06:49:30;;;;;;;;;;;;;;;-0.23;100.00;102036.46;1815436;78;20250;-40
2020/12/17 06:52:07;;;;;;;;;;;;;;;-0.22;100.00;102031.39;1817177;78;20203;-40
2020/12/17 06:54:39;;;;;;;;;;;;;;;-0.20;100.00;102026.31;1802398;78;20163;-42
2020/12/17 06:57:11;;;;;;;;;;;;;;;-0.20;100.00;102025.03;1803993;78;20171;-42
2020/12/17 06:59:40;;;;;;;;;;;;;;;-0.15;100.00;102026.13;1827875;77;20198;-42
2020/12/17 07:02:12;;;;;;;;;;;;;;;-0.15;100.00;102023.55;1773315;78;20194;-40
2020/12/17 07:04:52;;;;;;;;;;;;;;;-0.15;100.00;102021.86;1808702;78;20424;-42
2020/12/17 07:07:23;;;;;;;;;;;;;;;-0.11;100.00;102022.87;1787118;78;20425;-41
2020/12/17 07:09:54;;;;;;;;;;;;;;;-0.09;100.00;102022.14;1804094;77;20301;-39
2020/12/17 07:12:41;;;;;;;;;;;;;;;-0.09;100.00;102021.26;1792729;78;20218;-41
2020/12/17 07:15:41;;;;;;;;;;;;;;;-0.11;100.00;102021.18;1786176;76;20183;-39
2020/12/17 07:18:21;;;;;;;;;;;;;;;-0.10;100.00;102027.22;1800874;77;20177;-40
2020/12/17 07:21:07;;;;;;;;;;;;;;;-0.08;100.00;102034.63;1766497;78;20364;-40
2020/12/17 07:23:45;;;;;;;;;;;;;;;-0.08;100.00;102032.05;1812730;77;20239;-41
2020/12/17 07:26:22;;;;;;;;;;;;;;;-0.06;100.00;102035.56;1777863;78;20459;-43
2020/12/17 07:28:51;;;;;;;;;;;;;;;-0.03;100.00;102031.86;1765666;78;20127;-40
2020/12/17 07:31:25;;;;;;;;;;;;;;;-0.01;100.00;102031.13;1799729;78;20125;-41
2020/12/17 07:33:54;;;;;;;;;;;;;;;0.03;100.00;102028.28;1815998;77;20125;-41
2020/12/17 07:36:48;;;;;;;;;;;;;;;0.05;100.00;102025.38;1806733;77;20508;-42
2020/12/17 07:39:17;;;;;;;;;;;;;;;0.04;100.00;102030.05;1799752;78;20194;-40
2020/12/17 07:41:45;;;;;;;;;;;;;;;0.03;100.00;102028.68;1814495;77;20505;-41
2020/12/17 07:44:41;;;;;;;;;;;;;;;0.00;100.00;102030.30;1807955;78;20181;-40
2020/12/17 07:47:19;;;;;;;;;;;;;;;-0.02;100.00;102033.63;1798893;78;20152;-41
2020/12/17 07:49:46;;;;;;;;;;;;;;;-0.02;100.00;102037.50;1832437;77;20117;-41
2020/12/17 07:52:34;;;;;;;;;;;;;;;0.04;100.00;102044.63;1832742;77;20188;-41
2020/12/17 07:55:02;;;;;;;;;;;;;;;0.09;100.00;102041.45;1831103;77;20204;-41
2020/12/17 07:57:30;;;;;;;;;;;;;;;0.16;100.00;102043.51;1835298;77;20585;-42
2020/12/17 07:59:57;;;;;;;;;;;;;;;0.21;100.00;102043.72;1834050;77;20218;-42
2020/12/17 08:02:25;;;;;;;;;;;;;;;0.20;100.00;102046.70;1831454;77;20560;-39
2020/12/17 08:04:56;;;;;;;;;;;;;;;0.18;100.00;102049.63;1836046;77;20331;-41
2020/12/17 08:07:24;;;;;;;;;;;;;;;0.20;100.00;102050.56;1832210;77;20259;-42
2020/12/17 08:10:01;;;;;;;;;;;;;;;0.21;100.00;102048.47;1832863;77;20179;-41
2020/12/17 08:12:28;;;;;;;;;;;;;;;0.22;100.00;102050.24;1808748;77;20461;-42
2020/12/17 08:15:09;;;;;;;;;;;;;;;0.25;100.00;102043.95;1833362;77;20188;-51
2020/12/17 08:17:36;;;;;;;;;;;;;;;0.31;100.00;102045.52;1830354;77;20121;-42
2020/12/17 08:20:04;;;;;;;;;;;;;;;0.30;100.00;102045.45;1816729;78;20292;-42
2020/12/17 08:22:32;;;;;;;;;;;;;;;0.29;100.00;102043.67;1822998;78;20541;-41
2020/12/17 08:25:04;;;;;;;;;;;;;;;0.25;100.00;102038.80;1756339;78;20129;-42
2020/12/17 08:27:32;;;;;;;;;;;;;;;0.30;100.00;102038.59;1815767;78;20172;-40
2020/12/17 08:30:01;;;;;;;;;;;;;;;0.33;100.00;102038.72;1808178;78;20229;-43
2020/12/17 08:32:30;;;;;;;;;;;;;;;0.35;100.00;102038.39;1805819;78;20334;-41
2020/12/17 08:34:58;;;;;;;;;;;;;;;0.40;100.00;102038.59;1814154;78;20263;-42
2020/12/17 08:37:29;;;;;;;;;;;;;;;0.43;100.00;102038.75;1809913;78;20200;-41
2020/12/17 08:40:10;;;;;;;;;;;;;;;0.48;100.00;102039.83;1809128;78;20321;-42
2020/12/17 08:42:34;;;;;;;;;;;;;;;0.55;100.00;102034.55;1802075;78;20208;-44
2020/12/17 08:45:05;;;;;;;;;;;;;;;0.54;100.00;102034.06;1807378;78;20448;-42
2020/12/17 08:47:39;;;;;;;;;;;;;;;0.52;99.72;102034.42;1808023;78;20214;-42
2020/12/17 08:50:09;;;;;;;;;;;;;;;0.51;99.26;102030.07;1806636;78;20241;-41
2020/12/17 08:52:38;;;;;;;;;;;;;;;0.48;98.86;102032.50;1788624;78;20512;-42
2020/12/17 08:55:10;;;;;;;;;;;;;;;0.49;98.51;102029.99;1782493;78;20161;-42
2020/12/17 08:57:43;;;;;;;;;;;;;;;0.54;98.14;102028.50;1767581;78;20211;-42
2020/12/17 09:00:22;;;;;;;;;;;;;;;0.58;97.79;102026.95;1788267;78;20198;-43
2020/12/17 09:02:47;;;;;;;;;;;;;;;0.62;97.40;102035.30;1832758;77;20539;-42
2020/12/17 09:05:16;;;;;;;;;;;;;;;0.64;96.98;102037.14;1795399;79;20281;-42
2020/12/17 09:07:47;;;;;;;;;;;;;;;0.66;96.61;102034.61;1799679;78;20234;-44
2020/12/17 09:10:18;;;;;;;;;;;;;;;0.65;96.32;102039.32;1778879;77;20232;-42
2020/12/17 09:12:50;;;;;;;;;;;;;;;0.65;95.97;102036.33;1797367;78;20302;-42
2020/12/17 09:15:20;;;;;;;;;;;;;;;0.68;95.70;102040.33;1814223;78;20153;-42
2020/12/17 09:17:47;;;;;;;;;;;;;;;0.63;95.44;102040.94;1806668;78;20267;-42
2020/12/17 09:20:19;;;;;;;;;;;;;;;0.60;95.19;102042.08;1802981;78;20263;-42
2020/12/17 09:22:49;;;;;;;;;;;;;;;0.57;95.09;102035.09;1827504;77;20200;-42
2020/12/17 09:25:29;;;;;;;;;;;;;;;0.56;95.03;102033.73;1803125;78;20327;-42
2020/12/17 09:28:22;;;;;;;;;;;;;;;0.54;94.91;102031.48;1761821;78;20173;-41
2020/12/17 09:30:53;;;;;;;;;;;;;;;0.50;94.80;102029.19;1802660;77;20213;-41
2020/12/17 09:33:24;;;;;;;;;;;;;;;0.49;94.69;102019.67;1785295;78;20297;-42
2020/12/17 09:35:52;;;;;;;;;;;;;;;0.50;94.64;102019.27;1813612;78;20203;-42
2020/12/17 09:38:20;;;;;;;;;;;;;;;0.52;94.67;102015.07;1799267;78;20212;-42
2020/12/17 09:40:52;;;;;;;;;;;;;;;0.57;94.62;102011.88;1813637;77;20206;-43
2020/12/17 09:43:19;;;;;;;;;;;;;;;0.59;94.44;102008.94;1817973;78;20188;-43
2020/12/17 09:45:48;;;;;;;;;;;;;;;0.62;94.30;101998.77;1817231;78;20212;-43
2020/12/17 09:48:19;;;;;;;;;;;;;;;0.62;94.08;102001.34;1844563;77;20290;-42
2020/12/17 09:51:00;;;;;;;;;;;;;;;0.61;93.79;101998.28;1839660;77;20172;-41
2020/12/17 09:53:31;;;;;;;;;;;;;;;0.62;93.57;101981.99;1825608;77;20513;-40
2020/12/17 09:56:01;;;;;;;;;;;;;;;0.62;93.37;101969.50;1817323;77;20189;-43
2020/12/17 09:58:31;;;;;;;;;;;;;;;0.58;93.16;101969.78;1837365;77;20236;-47
2020/12/17 10:00:59;;;;;;;;;;;;;;;0.59;93.04;101975.39;1831970;77;20285;-42
2020/12/17 10:03:27;;;;;;;;;;;;;;;0.62;92.96;101964.33;1836084;77;20561;-41
2020/12/17 10:05:57;;;;;;;;;;;;;;;0.64;92.72;101964.89;1811863;78;20196;-42
2020/12/17 10:08:25;;;;;;;;;;;;;;;0.70;92.61;101969.43;1814067;78;20263;-41
2020/12/17 10:10:53;;;;;;;;;;;;;;;0.71;92.44;101963.45;1817671;78;20270;-42
2020/12/17 10:13:22;;;;;;;;;;;;;;;0.61;92.27;101973.77;1837308;77;20454;-43
2020/12/17 10:15:49;;;;;;;;;;;;;;;0.59;92.24;101978.41;1829887;77;20281;-39
2020/12/17 10:18:17;;;;;;;;;;;;;;;0.60;92.18;101977.56;1835748;77;20328;-45
2020/12/17 10:20:45;;;;;;;;;;;;;;;0.57;91.91;101972.29;1831107;77;20196;-41
2020/12/17 10:26:50;;;;;;;;;;;;;;;0.50;91.80;101982.75;1889323;74;20452;-43
2020/12/17 10:29:20;;;;;;;;;;;;;;;0.42;91.79;101985.78;1853622;75;20202;-44
2020/12/17 10:31:49;;;;;;;;;;;;;;;0.42;91.77;101985.78;1866545;75;20150;-41
2020/12/17 10:34:17;;;;;;;;;;;;;;;0.45;91.81;101990.69;1877029;75;20179;-40
2020/12/17 10:36:45;;;;;;;;;;;;;;;0.45;91.75;101986.83;1867507;75;20158;-39
2020/12/17 10:39:13;;;;;;;;;;;;;;;0.46;91.73;101977.39;1881583;75;20188;-38
2020/12/17 10:41:41;;;;;;;;;;;;;;;0.46;91.64;101978.24;1870958;75;20212;-40
2020/12/17 10:44:10;;;;;;;;;;;;;;;0.48;91.58;101980.49;1877421;75;20290;-38
2020/12/17 10:46:38;;;;;;;;;;;;;;;0.50;91.55;101977.59;1868182;75;20471;-40
2020/12/17 10:49:09;;;;;;;;;;;;;;;0.48;91.47;101976.63;1836229;77;20174;-36
2020/12/17 10:51:37;;;;;;;;;;;;;;;0.47;91.53;101971.39;1794992;78;20173;-46
2020/12/17 10:54:05;;;;;;;;;;;;;;;0.44;91.59;101976.02;1828706;77;20198;-40
2020/12/17 10:56:34;;;;;;;;;;;;;;;0.46;91.70;101969.66;1830692;77;20172;-37
2020/12/17 10:59:02;;;;;;;;;;;;;;;0.44;91.63;101967.00;1830474;77;20289;-39
2020/12/17 11:01:35;;;;;;;;;;;;;;;0.43;91.57;101978.53;1807919;77;20314;-40
2020/12/17 11:04:10;;;;;;;;;;;;;;;0.40;91.53;101974.98;1788135;77;20220;-41
2020/12/17 11:06:48;;;;;;;;;;;;;;;0.35;91.52;101979.06;1792591;77;20286;-45
2020/12/17 11:09:19;;;;;;;;;;;;;;;0.29;91.57;101968.47;1830553;77;20299;-43
2020/12/17 11:11:52;;;;;;;;;;;;;;;0.25;91.62;101970.86;1835008;77;20130;-41
2020/12/17 11:14:20;;;;;;;;;;;;;;;0.22;91.68;101968.13;1838322;77;20288;-45
2020/12/17 11:16:49;;;;;;;;;;;;;;;0.19;91.74;101971.47;1812938;77;20224;-42
2020/12/17 11:19:17;;;;;;;;;;;;;;;0.19;91.81;101961.55;1813460;77;20196;-43
2020/12/17 11:21:45;;;;;;;;;;;;;;;0.18;91.91;101970.09;1823723;77;20301;-43
2020/12/17 11:24:13;;;;;;;;;;;;;;;0.18;92.02;101972.68;1811156;77;20502;-39
2020/12/17 11:26:44;;;;;;;;;;;;;;;0.20;91.96;101967.16;1833762;77;20481;-39
2020/12/17 11:29:13;;;;;;;;;;;;;;;0.20;91.94;101955.56;1736783;78;20544;-39
2020/12/17 11:31:44;;;;;;;;;;;;;;;0.24;91.86;101957.48;1837984;77;20162;-41
2020/12/17 11:34:12;;;;;;;;;;;;;;;0.24;91.76;101961.35;1830212;77;20207;-39
2020/12/17 11:36:40;;;;;;;;;;;;;;;0.22;91.66;101956.11;1837728;77;20265;-40
2020/12/17 11:39:08;;;;;;;;;;;;;;;0.24;91.70;101966.51;1829051;77;20280;-39
2020/12/17 11:41:36;;;;;;;;;;;;;;;0.24;91.75;101969.09;1835083;77;20295;-38
2020/12/17 11:44:24;;;;;;;;;;;;;;;0.24;91.83;101976.42;1813162;77;20193;-41
2020/12/17 11:46:52;;;;;;;;;;;;;;;0.22;91.90;101976.74;1804606;78;20261;-40
2020/12/17 11:49:21;;;;;;;;;;;;;;;0.19;91.94;101968.00;1785428;78;20201;-39
2020/12/17 11:51:54;;;;;;;;;;;;;;;0.13;92.01;101977.60;1833362;77;20198;-40
2020/12/17 11:54:22;;;;;;;;;;;;;;;0.09;92.20;101973.13;1835962;77;20200;-40
2020/12/17 11:56:56;;;;;;;;;;;;;;;0.07;92.43;101970.88;1797645;78;20207;-42
2020/12/17 11:59:29;;;;;;;;;;;;;;;0.08;92.52;101973.05;1795187;78;20201;-40
2020/12/17 12:01:58;;;;;;;;;;;;;;;0.05;92.64;101975.50;1789217;78;20247;-40
2020/12/17 12:04:29;;;;;;;;;;;;;;;0.02;92.79;101972.77;1811889;78;20282;-37
2020/12/17 12:06:57;;;;;;;;;;;;;;;0.00;92.91;101966.28;1807361;78;20159;-37
2020/12/17 12:09:28;;;;;;;;;;;;;;;0.02;93.07;101973.66;1816384;77;20210;-39
2020/12/17 12:11:55;;;;;;;;;;;;;;;0.02;93.24;101972.77;1811081;78;20184;-38
2020/12/17 12:14:24;;;;;;;;;;;;;;;0.00;93.43;101973.58;1818773;77;20334;-38
2020/12/17 12:16:54;;;;;;;;;;;;;;;-0.01;93.51;101974.83;1830990;77;20466;-39
2020/12/17 12:19:23;;;;;;;;;;;;;;;-0.01;93.60;101974.42;1833788;77;20186;-45
2020/12/17 12:21:52;;;;;;;;;;;;;;;0.00;93.64;101971.00;1829908;77;20204;-39
2020/12/17 12:24:19;;;;;;;;;;;;;;;0.01;93.67;101965.44;1834326;77;20284;-39
2020/12/17 12:26:51;;;;;;;;;;;;;;;0.02;93.68;101960.77;1797863;79;20171;-37
2020/12/17 12:29:20;;;;;;;;;;;;;;;0.00;93.63;101961.98;1781229;78;20550;-40
2020/12/17 12:31:52;;;;;;;;;;;;;;;-0.03;93.66;101964.44;1814739;77;20125;-39
2020/12/17 12:34:20;;;;;;;;;;;;;;;-0.07;93.62;101970.27;1814243;78;20172;-40
2020/12/17 12:36:49;;;;;;;;;;;;;;;-0.11;93.65;101966.17;1833522;77;20196;-39
2020/12/17 12:39:17;;;;;;;;;;;;;;;-0.14;93.69;101966.92;1840261;77;20302;-39
2020/12/17 12:41:46;;;;;;;;;;;;;;;-0.17;93.67;101972.33;1834512;76;20208;-40
2020/12/17 12:44:15;;;;;;;;;;;;;;;-0.18;93.67;101970.55;1813086;78;21184;-39
2020/12/17 12:46:47;;;;;;;;;;;;;;;-0.19;93.69;101970.07;1791054;79;20261;-38
2020/12/17 12:49:16;;;;;;;;;;;;;;;-0.22;93.78;101973.81;1813200;78;20322;-40
2020/12/17 12:51:49;;;;;;;;;;;;;;;-0.22;93.82;101974.70;1813488;78;20170;-40
2020/12/17 12:54:18;;;;;;;;;;;;;;;-0.20;93.90;101978.64;1784726;78;20285;-50
2020/12/17 12:56:45;;;;;;;;;;;;;;;-0.18;93.95;101984.73;1819716;78;20232;-39